Time;durP1;ratioP1;P1;durP2;ratioP2;P2;SDS_P1;SDS_P2;PMS_P1;PMS_P2;Temp;Humidity;BMP_temperature;BMP_pressure;BME280_temperature;BME280_humidity;BME280_pressure;Samples;Min_cycle;Max_cycle;Signal;HPM_P1;HPM_P2
2022/03/04 00:00:50;;;;;;;25.10;17.55;;;;;;;;;;5047871;28;20028;-63
2022/03/04 00:03:16;;;;;;;23.88;18.10;;;;;;;;;;5064431;28;20013;-63
2022/03/04 00:05:41;;;;;;;27.42;18.67;;;;;;;;;;5065038;28;20039;-62
2022/03/04 00:08:07;;;;;;;23.85;17.13;;;;;;;;;;5061681;28;20021;-62
2022/03/04 00:10:32;;;;;;;23.13;17.65;;;;;;;;;;5064097;28;20151;-63
2022/03/04 00:12:58;;;;;;;26.00;18.15;;;;;;;;;;5062858;28;20017;-63
2022/03/04 00:15:23;;;;;;;25.05;18.50;;;;;;;;;;5065357;28;20030;-62
2022/03/04 00:17:48;;;;;;;24.70;17.67;;;;;;;;;;5047324;28;20103;-63
2022/03/04 00:20:14;;;;;;;24.95;17.67;;;;;;;;;;5064990;28;20475;-64
2022/03/04 00:22:39;;;;;;;23.67;17.63;;;;;;;;;;5059734;28;20016;-63
2022/03/04 00:25:04;;;;;;;25.20;17.60;;;;;;;;;;5063683;28;20372;-62
2022/03/04 00:27:30;;;;;;;27.08;18.02;;;;;;;;;;5061151;28;20478;-63
2022/03/04 00:29:55;;;;;;;24.00;17.58;;;;;;;;;;5064309;28;20020;-62
2022/03/04 00:32:21;;;;;;;27.27;18.38;;;;;;;;;;5063727;28;20020;-63
2022/03/04 00:34:46;;;;;;;26.55;18.17;;;;;;;;;;5062108;28;20028;-63
2022/03/04 00:37:11;;;;;;;25.10;17.40;;;;;;;;;;5065534;28;20119;-62
2022/03/04 00:39:36;;;;;;;22.85;16.92;;;;;;;;;;5063640;28;20198;-63
2022/03/04 00:42:02;;;;;;;24.33;17.65;;;;;;;;;;5062073;28;20078;-63
2022/03/04 00:44:27;;;;;;;24.48;17.27;;;;;;;;;;5063008;28;20076;-62
2022/03/04 00:46:53;;;;;;;27.02;18.98;;;;;;;;;;5045782;28;20493;-62
2022/03/04 00:49:18;;;;;;;27.58;17.20;;;;;;;;;;5063478;28;20105;-62
2022/03/04 00:51:43;;;;;;;25.45;18.55;;;;;;;;;;5060284;28;20122;-63
2022/03/04 00:54:09;;;;;;;26.48;17.77;;;;;;;;;;5049859;28;20678;-63
2022/03/04 00:56:36;;;;;;;23.67;17.23;;;;;;;;;;5040083;28;20531;-63
2022/03/04 00:59:02;;;;;;;24.50;17.45;;;;;;;;;;5045116;28;20065;-62
2022/03/04 01:01:27;;;;;;;23.90;17.80;;;;;;;;;;5043443;28;20478;-63
2022/03/04 01:03:53;;;;;;;23.83;17.17;;;;;;;;;;5026964;28;20048;-63
2022/03/04 01:06:19;;;;;;;24.08;18.23;;;;;;;;;;5042403;28;20433;-63
2022/03/04 01:08:44;;;;;;;26.15;17.92;;;;;;;;;;5024106;28;20428;-62
2022/03/04 01:11:09;;;;;;;23.92;17.75;;;;;;;;;;5043240;28;20040;-62
2022/03/04 01:13:34;;;;;;;26.65;17.77;;;;;;;;;;5040270;28;20023;-62
2022/03/04 01:16:00;;;;;;;25.52;18.35;;;;;;;;;;5045359;28;20024;-62
2022/03/04 01:18:26;;;;;;;25.50;17.65;;;;;;;;;;5043136;28;20114;-62
2022/03/04 01:20:51;;;;;;;25.08;17.00;;;;;;;;;;5025951;28;20032;-62
2022/03/04 01:23:17;;;;;;;23.10;17.95;;;;;;;;;;5041930;28;20503;-63
2022/03/04 01:25:42;;;;;;;24.08;16.83;;;;;;;;;;5041398;28;20036;-63
2022/03/04 01:28:07;;;;;;;24.90;17.63;;;;;;;;;;5040105;28;20068;-63
2022/03/04 01:30:32;;;;;;;24.88;17.17;;;;;;;;;;5041477;28;20052;-64
2022/03/04 01:32:57;;;;;;;24.65;18.27;;;;;;;;;;5043854;28;20129;-63
2022/03/04 01:35:23;;;;;;;26.50;17.70;;;;;;;;;;5044695;28;20386;-62
2022/03/04 01:37:48;;;;;;;27.13;17.48;;;;;;;;;;5039438;28;20041;-63
2022/03/04 01:40:13;;;;;;;26.63;15.98;;;;;;;;;;5045434;28;20084;-63
2022/03/04 01:42:39;;;;;;;25.48;16.77;;;;;;;;;;5037378;28;20063;-62
2022/03/04 01:45:04;;;;;;;27.95;18.15;;;;;;;;;;5043322;28;20400;-62
2022/03/04 01:47:30;;;;;;;25.88;17.40;;;;;;;;;;5041854;28;20036;-62
2022/03/04 01:49:55;;;;;;;26.13;17.48;;;;;;;;;;5040746;28;20025;-62
2022/03/04 01:52:21;;;;;;;25.98;17.92;;;;;;;;;;5039664;28;20033;-63
2022/03/04 01:54:46;;;;;;;27.23;18.45;;;;;;;;;;5041591;28;20444;-63
2022/03/04 01:57:11;;;;;;;25.77;17.63;;;;;;;;;;5038790;28;20017;-62
2022/03/04 01:59:37;;;;;;;25.92;18.42;;;;;;;;;;5041490;28;20074;-62
2022/03/04 02:02:02;;;;;;;25.13;16.65;;;;;;;;;;5043261;28;20116;-63
2022/03/04 02:04:28;;;;;;;26.88;18.08;;;;;;;;;;5042901;28;20541;-63
2022/03/04 02:06:53;;;;;;;26.30;18.08;;;;;;;;;;5020790;28;20211;-62
2022/03/04 02:09:19;;;;;;;25.23;18.15;;;;;;;;;;5041879;28;20104;-62
2022/03/04 02:11:44;;;;;;;23.92;16.83;;;;;;;;;;5036932;28;20402;-63
2022/03/04 02:14:10;;;;;;;25.40;18.20;;;;;;;;;;5041665;28;20458;-62
2022/03/04 02:16:41;;;;;;;27.25;17.35;;;;;;;;;;5055828;28;20096;-63
2022/03/04 02:19:06;;;;;;;24.88;16.45;;;;;;;;;;5063179;28;20021;-62
2022/03/04 02:21:32;;;;;;;28.08;18.70;;;;;;;;;;5060010;28;20110;-62
2022/03/04 02:23:57;;;;;;;25.95;17.65;;;;;;;;;;5060007;28;20020;-62
2022/03/04 02:26:22;;;;;;;27.70;17.48;;;;;;;;;;5060596;28;20027;-62
2022/03/04 02:28:48;;;;;;;25.45;17.90;;;;;;;;;;5062582;28;20020;-63
2022/03/04 02:31:16;;;;;;;26.63;17.15;;;;;;;;;;5062360;28;20387;-62
2022/03/04 02:33:42;;;;;;;22.38;16.33;;;;;;;;;;5062931;28;20016;-62
2022/03/04 02:36:08;;;;;;;22.05;15.77;;;;;;;;;;5062768;28;20024;-62
2022/03/04 02:38:33;;;;;;;25.95;16.60;;;;;;;;;;5058509;28;20043;-63
2022/03/04 02:40:59;;;;;;;24.60;17.23;;;;;;;;;;5044340;28;20111;-63
2022/03/04 02:43:25;;;;;;;27.17;18.10;;;;;;;;;;5060197;28;20132;-62
2022/03/04 02:45:51;;;;;;;28.73;17.80;;;;;;;;;;5061166;28;20139;-62
2022/03/04 02:48:17;;;;;;;27.13;17.27;;;;;;;;;;5063152;28;20115;-62
2022/03/04 02:50:42;;;;;;;23.90;16.73;;;;;;;;;;5060096;28;20024;-63
2022/03/04 02:53:07;;;;;;;23.50;16.10;;;;;;;;;;5065462;28;20465;-63
2022/03/04 02:55:33;;;;;;;27.17;16.98;;;;;;;;;;5062772;28;20540;-63
2022/03/04 02:57:58;;;;;;;23.98;16.95;;;;;;;;;;5041393;28;20020;-62
2022/03/04 03:00:24;;;;;;;29.13;18.10;;;;;;;;;;5063996;28;20017;-62
2022/03/04 03:02:49;;;;;;;26.45;17.60;;;;;;;;;;5061266;28;20116;-62
2022/03/04 03:05:14;;;;;;;26.48;18.27;;;;;;;;;;5062892;28;20143;-61
2022/03/04 03:07:40;;;;;;;27.17;17.95;;;;;;;;;;5056913;28;20036;-62
2022/03/04 03:10:05;;;;;;;25.27;18.00;;;;;;;;;;5062713;28;20040;-62
2022/03/04 03:12:31;;;;;;;28.83;18.95;;;;;;;;;;5058859;28;20166;-62
2022/03/04 03:14:56;;;;;;;24.70;17.02;;;;;;;;;;5059814;28;20135;-62
2022/03/04 03:17:21;;;;;;;27.08;18.63;;;;;;;;;;5060488;28;20025;-62
2022/03/04 03:19:47;;;;;;;27.98;17.88;;;;;;;;;;5060711;28;20081;-62
2022/03/04 03:22:14;;;;;;;25.80;18.27;;;;;;;;;;5060352;28;20016;-62
2022/03/04 03:24:40;;;;;;;28.05;17.98;;;;;;;;;;5057672;28;20033;-62
2022/03/04 03:27:05;;;;;;;28.98;18.85;;;;;;;;;;5056998;28;20528;-63
2022/03/04 03:29:30;;;;;;;29.50;19.27;;;;;;;;;;5062105;28;20568;-62
2022/03/04 03:31:55;;;;;;;29.55;18.23;;;;;;;;;;5059781;28;20013;-63
2022/03/04 03:34:21;;;;;;;23.40;17.10;;;;;;;;;;5061851;28;20021;-62
2022/03/04 03:36:46;;;;;;;28.52;18.45;;;;;;;;;;5058391;28;20013;-61
2022/03/04 03:39:11;;;;;;;28.15;19.33;;;;;;;;;;5060914;28;20059;-62
2022/03/04 03:41:37;;;;;;;29.13;19.13;;;;;;;;;;5059294;28;20319;-62
2022/03/04 03:44:03;;;;;;;26.55;18.13;;;;;;;;;;5058392;28;20123;-63
2022/03/04 03:46:28;;;;;;;27.85;18.40;;;;;;;;;;5060205;28;20119;-63
2022/03/04 03:48:53;;;;;;;26.60;17.45;;;;;;;;;;5059753;28;20039;-63
2022/03/04 03:51:19;;;;;;;26.40;17.90;;;;;;;;;;5060722;28;20375;-63
2022/03/04 03:53:45;;;;;;;31.38;18.55;;;;;;;;;;5056287;28;20027;-63
2022/03/04 03:56:11;;;;;;;28.30;18.35;;;;;;;;;;5061260;28;20032;-63
2022/03/04 03:58:37;;;;;;;28.05;17.92;;;;;;;;;;5056766;28;20040;-63
2022/03/04 04:01:03;;;;;;;29.30;18.83;;;;;;;;;;5059919;28;20028;-62
2022/03/04 04:03:28;;;;;;;27.45;17.98;;;;;;;;;;5059399;28;20026;-63
2022/03/04 04:05:53;;;;;;;27.75;18.05;;;;;;;;;;5058934;28;20029;-62
2022/03/04 04:08:18;;;;;;;30.92;18.90;;;;;;;;;;5055846;28;20024;-62
2022/03/04 04:10:44;;;;;;;27.85;19.30;;;;;;;;;;5061458;28;20017;-62
2022/03/04 04:13:09;;;;;;;29.75;18.23;;;;;;;;;;5058665;28;20565;-62
2022/03/04 04:15:34;;;;;;;27.50;18.90;;;;;;;;;;5061871;28;20017;-62
2022/03/04 04:18:00;;;;;;;27.15;17.58;;;;;;;;;;5057975;28;20042;-62
2022/03/04 04:20:25;;;;;;;32.47;19.77;;;;;;;;;;5063077;28;20491;-62
2022/03/04 04:22:50;;;;;;;27.52;18.00;;;;;;;;;;5055023;28;20021;-62
2022/03/04 04:25:16;;;;;;;31.63;20.48;;;;;;;;;;5046191;28;20390;-63
2022/03/04 04:27:42;;;;;;;27.85;19.33;;;;;;;;;;5061913;28;20043;-62
2022/03/04 04:30:07;;;;;;;29.67;19.38;;;;;;;;;;5046064;28;20031;-63
2022/03/04 04:32:32;;;;;;;29.58;18.98;;;;;;;;;;5062453;28;20020;-63
2022/03/04 04:34:58;;;;;;;31.60;19.15;;;;;;;;;;5064314;28;20017;-63
2022/03/04 04:37:23;;;;;;;31.17;19.27;;;;;;;;;;5057934;28;20018;-62
2022/03/04 04:39:49;;;;;;;28.67;19.50;;;;;;;;;;5023500;28;20044;-63
2022/03/04 04:42:14;;;;;;;30.98;19.08;;;;;;;;;;5041309;28;20025;-62
2022/03/04 04:44:39;;;;;;;30.83;20.25;;;;;;;;;;5044986;28;20032;-62
2022/03/04 04:47:06;;;;;;;27.13;19.30;;;;;;;;;;5040890;28;20197;-63
2022/03/04 04:49:34;;;;;;;28.20;18.83;;;;;;;;;;5047058;28;20032;-62
2022/03/04 04:51:59;;;;;;;30.30;19.55;;;;;;;;;;5044008;28;20209;-62
2022/03/04 04:54:25;;;;;;;30.30;19.75;;;;;;;;;;5043496;28;20540;-62
2022/03/04 04:56:50;;;;;;;31.50;19.38;;;;;;;;;;5039991;28;20067;-62
2022/03/04 04:59:16;;;;;;;28.35;18.98;;;;;;;;;;5043845;28;20021;-63
2022/03/04 05:01:41;;;;;;;32.42;20.83;;;;;;;;;;5043459;28;20336;-62
2022/03/04 05:04:06;;;;;;;30.05;19.77;;;;;;;;;;5043287;28;20025;-62
2022/03/04 05:06:32;;;;;;;30.90;18.52;;;;;;;;;;5040531;28;20024;-62
2022/03/04 05:08:57;;;;;;;30.13;19.63;;;;;;;;;;5040301;28;20032;-62
2022/03/04 05:11:22;;;;;;;29.55;19.58;;;;;;;;;;5041363;28;20161;-62
2022/03/04 05:13:48;;;;;;;29.70;19.75;;;;;;;;;;5042553;28;20071;-64
2022/03/04 05:16:14;;;;;;;31.48;19.88;;;;;;;;;;5024516;28;20091;-63
2022/03/04 05:18:39;;;;;;;30.77;19.92;;;;;;;;;;5026270;28;20442;-63
2022/03/04 05:21:05;;;;;;;30.83;19.63;;;;;;;;;;5043460;28;20045;-63
2022/03/04 05:26:15;;;;;;;32.67;20.15;;;;;;;;;;5041778;28;20398;-62
2022/03/04 05:28:40;;;;;;;33.42;20.13;;;;;;;;;;5040396;28;20329;-62
2022/03/04 05:31:05;;;;;;;31.10;19.17;;;;;;;;;;5042309;28;20510;-62
2022/03/04 05:33:31;;;;;;;31.15;20.05;;;;;;;;;;5043571;28;20098;-62
2022/03/04 05:35:56;;;;;;;32.50;19.08;;;;;;;;;;5043378;28;20025;-63
2022/03/04 05:38:21;;;;;;;30.75;19.48;;;;;;;;;;5040147;28;20029;-63
2022/03/04 05:40:47;;;;;;;32.13;20.77;;;;;;;;;;5042966;28;20132;-63
2022/03/04 05:43:13;;;;;;;30.55;20.13;;;;;;;;;;5039217;28;20029;-62
2022/03/04 05:45:38;;;;;;;31.83;20.20;;;;;;;;;;5026549;28;20031;-62
2022/03/04 05:48:03;;;;;;;32.38;20.02;;;;;;;;;;5041247;28;20507;-62
2022/03/04 05:50:29;;;;;;;31.33;19.35;;;;;;;;;;5047656;28;20063;-63
2022/03/04 05:52:54;;;;;;;28.50;19.73;;;;;;;;;;5055364;28;20028;-62
2022/03/04 05:55:19;;;;;;;30.33;19.88;;;;;;;;;;5062552;28;20036;-61
2022/03/04 05:57:48;;;;;;;29.88;19.00;;;;;;;;;;5058741;28;20186;-63
2022/03/04 06:00:13;;;;;;;30.35;20.20;;;;;;;;;;5061624;28;20028;-63
2022/03/04 06:02:38;;;;;;;34.47;20.70;;;;;;;;;;5063256;28;20036;-63
2022/03/04 06:05:04;;;;;;;35.97;20.77;;;;;;;;;;5062934;28;20089;-62
2022/03/04 06:07:33;;;;;;;32.47;21.70;;;;;;;;;;5055353;28;20035;-62
2022/03/04 06:09:59;;;;;;;34.35;19.90;;;;;;;;;;5051753;28;21548;-62
2022/03/04 06:12:24;;;;;;;32.75;20.33;;;;;;;;;;5040966;28;20020;-62
2022/03/04 06:14:50;;;;;;;37.38;21.13;;;;;;;;;;5042252;28;20392;-63
2022/03/04 06:17:17;;;;;;;32.28;20.58;;;;;;;;;;5046432;28;20021;-63
2022/03/04 06:19:42;;;;;;;34.05;21.63;;;;;;;;;;5044382;28;20040;-63
2022/03/04 06:22:08;;;;;;;31.50;20.20;;;;;;;;;;5042671;28;20470;-62
2022/03/04 06:24:33;;;;;;;33.60;21.92;;;;;;;;;;5041310;28;20029;-63
2022/03/04 06:26:59;;;;;;;35.45;20.83;;;;;;;;;;5040234;28;20116;-63
2022/03/04 06:29:24;;;;;;;32.08;20.73;;;;;;;;;;5044668;28;20061;-64
2022/03/04 06:31:51;;;;;;;33.40;21.70;;;;;;;;;;5061762;28;20024;-63
2022/03/04 06:34:18;;;;;;;40.67;19.83;;;;;;;;;;5054965;28;20025;-62
2022/03/04 06:36:44;;;;;;;34.38;21.13;;;;;;;;;;5041197;28;20717;-62
2022/03/04 06:39:09;;;;;;;33.70;21.23;;;;;;;;;;5053826;28;20261;-62
2022/03/04 06:41:34;;;;;;;30.48;20.50;;;;;;;;;;5059565;28;20092;-62
2022/03/04 06:43:59;;;;;;;35.03;22.75;;;;;;;;;;5060642;28;20028;-62
2022/03/04 06:46:25;;;;;;;32.67;21.25;;;;;;;;;;5062386;28;20066;-62
2022/03/04 06:48:50;;;;;;;30.77;20.55;;;;;;;;;;5062200;28;20345;-62
2022/03/04 06:51:16;;;;;;;37.92;21.45;;;;;;;;;;5044762;28;20028;-63
2022/03/04 06:53:41;;;;;;;34.88;21.90;;;;;;;;;;5061834;28;20099;-62
2022/03/04 06:56:06;;;;;;;31.20;20.33;;;;;;;;;;5058096;28;20105;-62
2022/03/04 06:58:32;;;;;;;31.73;20.52;;;;;;;;;;5059998;28;20434;-62
2022/03/04 07:00:57;;;;;;;35.30;21.33;;;;;;;;;;5061962;28;20395;-63
2022/03/04 07:03:23;;;;;;;30.88;20.30;;;;;;;;;;5063653;28;20409;-63
2022/03/04 07:05:49;;;;;;;33.28;21.95;;;;;;;;;;5063646;28;20399;-62
2022/03/04 07:08:15;;;;;;;32.22;20.00;;;;;;;;;;5060817;28;20036;-63
2022/03/04 07:10:43;;;;;;;32.97;21.05;;;;;;;;;;5044703;28;20419;-63
2022/03/04 07:13:10;;;;;;;30.77;20.48;;;;;;;;;;5058744;28;20454;-63
2022/03/04 07:15:35;;;;;;;31.08;20.42;;;;;;;;;;5062777;28;20417;-64
2022/03/04 07:18:02;;;;;;;35.05;21.05;;;;;;;;;;5060281;28;20521;-62
2022/03/04 07:20:27;;;;;;;35.17;22.85;;;;;;;;;;5062262;28;20028;-63
2022/03/04 07:22:53;;;;;;;33.53;21.42;;;;;;;;;;5062119;28;20025;-62
2022/03/04 07:25:19;;;;;;;35.70;22.15;;;;;;;;;;5056701;28;20021;-63
2022/03/04 07:27:45;;;;;;;30.02;19.95;;;;;;;;;;5059375;28;20052;-63
2022/03/04 07:30:14;;;;;;;35.45;21.77;;;;;;;;;;5062908;28;20060;-63
2022/03/04 07:32:40;;;;;;;32.88;20.52;;;;;;;;;;5061974;28;20019;-63
2022/03/04 07:35:07;;;;;;;33.78;21.77;;;;;;;;;;5061597;28;20433;-62
2022/03/04 07:37:33;;;;;;;31.50;21.25;;;;;;;;;;5062855;28;20021;-63
2022/03/04 07:39:58;;;;;;;30.10;21.35;;;;;;;;;;5058821;28;20048;-62
2022/03/04 07:42:23;;;;;;;31.27;21.02;;;;;;;;;;5042255;28;20028;-63
2022/03/04 07:44:49;;;;;;;30.05;19.42;;;;;;;;;;5063869;28;20441;-63
2022/03/04 07:47:14;;;;;;;33.63;20.95;;;;;;;;;;5061127;28;20219;-62
2022/03/04 07:49:42;;;;;;;33.33;21.60;;;;;;;;;;5062971;28;20429;-62
2022/03/04 07:52:07;;;;;;;34.55;22.17;;;;;;;;;;5059722;28;20040;-62
2022/03/04 07:54:32;;;;;;;31.55;20.52;;;;;;;;;;5061504;28;20399;-62
2022/03/04 07:56:58;;;;;;;36.72;20.92;;;;;;;;;;5050759;28;20025;-62
2022/03/04 07:59:24;;;;;;;32.65;21.60;;;;;;;;;;5042135;28;20093;-62
2022/03/04 08:01:49;;;;;;;33.05;21.00;;;;;;;;;;5066446;28;20483;-64
2022/03/04 08:04:14;;;;;;;31.67;21.05;;;;;;;;;;5063234;28;20215;-63
2022/03/04 08:06:39;;;;;;;27.98;20.65;;;;;;;;;;5066078;28;20075;-62
2022/03/04 08:09:05;;;;;;;32.15;21.27;;;;;;;;;;5061752;28;20031;-63
2022/03/04 08:11:30;;;;;;;33.20;21.52;;;;;;;;;;5062501;28;20019;-63
2022/03/04 08:14:01;;;;;;;32.20;21.50;;;;;;;;;;5064509;28;20028;-63
2022/03/04 08:16:29;;;;;;;32.80;21.38;;;;;;;;;;5047242;28;20119;-63
2022/03/04 08:18:54;;;;;;;32.67;21.75;;;;;;;;;;5065097;28;20048;-63
2022/03/04 08:21:19;;;;;;;31.08;21.27;;;;;;;;;;5063027;28;20071;-62
2022/03/04 08:23:44;;;;;;;31.33;21.52;;;;;;;;;;5062435;28;20024;-63
2022/03/04 08:26:10;;;;;;;28.15;20.65;;;;;;;;;;5061936;28;20036;-63
2022/03/04 08:28:35;;;;;;;29.55;20.95;;;;;;;;;;5058339;28;20052;-63
2022/03/04 08:31:03;;;;;;;34.63;22.77;;;;;;;;;;5061689;28;20487;-62
2022/03/04 08:33:28;;;;;;;31.35;21.17;;;;;;;;;;5063157;28;20495;-63
2022/03/04 08:35:54;;;;;;;29.83;21.40;;;;;;;;;;5064734;28;20017;-62
2022/03/04 08:38:19;;;;;;;35.47;21.35;;;;;;;;;;5043237;28;20389;-62
2022/03/04 08:40:44;;;;;;;31.25;21.98;;;;;;;;;;5058514;28;20041;-63
2022/03/04 08:43:10;;;;;;;28.52;20.92;;;;;;;;;;5041129;28;20025;-62
2022/03/04 08:45:35;;;;;;;33.95;22.63;;;;;;;;;;5045462;28;20357;-62
2022/03/04 08:48:06;;;;;;;31.58;21.38;;;;;;;;;;5044296;28;20080;-62
2022/03/04 08:50:32;;;;;;;31.77;21.63;;;;;;;;;;5042003;28;20543;-62
2022/03/04 08:52:57;;;;;;;30.85;21.00;;;;;;;;;;5041944;28;20153;-62
2022/03/04 08:55:22;;;;;;;32.40;21.42;;;;;;;;;;5039151;28;20036;-62
2022/03/04 08:57:48;;;;;;;28.90;21.15;;;;;;;;;;5062330;28;20105;-62
2022/03/04 09:00:15;;;;;;;33.25;21.23;;;;;;;;;;5061416;28;20032;-61
2022/03/04 09:02:40;;;;;;;31.90;20.98;;;;;;;;;;5064776;28;20137;-62
2022/03/04 09:05:06;;;;;;;30.02;20.60;;;;;;;;;;5063649;28;20487;-61
2022/03/04 09:07:32;;;;;;;32.38;21.30;;;;;;;;;;5044276;28;20043;-61
2022/03/04 09:09:57;;;;;;;30.92;20.85;;;;;;;;;;5055770;28;20052;-61
2022/03/04 09:12:25;;;;;;;31.30;21.30;;;;;;;;;;5046818;28;20097;-62
2022/03/04 09:14:51;;;;;;;26.92;20.80;;;;;;;;;;5065738;28;20503;-61
2022/03/04 09:17:16;;;;;;;31.73;21.77;;;;;;;;;;5064074;28;20024;-60
2022/03/04 09:19:42;;;;;;;28.13;21.25;;;;;;;;;;5065017;28;20032;-62
2022/03/04 09:22:07;;;;;;;29.27;20.50;;;;;;;;;;5062543;28;20093;-62
2022/03/04 09:24:32;;;;;;;29.10;20.90;;;;;;;;;;5063797;28;20032;-62
2022/03/04 09:26:57;;;;;;;29.58;20.92;;;;;;;;;;5061426;28;20058;-62
2022/03/04 09:29:23;;;;;;;27.23;20.35;;;;;;;;;;5061554;28;20557;-61
2022/03/04 09:31:48;;;;;;;29.45;21.17;;;;;;;;;;5064668;28;20063;-62
2022/03/04 09:34:13;;;;;;;29.95;21.25;;;;;;;;;;5062959;28;20356;-62
2022/03/04 09:36:38;;;;;;;29.00;21.15;;;;;;;;;;5064435;28;20359;-63
2022/03/04 09:39:04;;;;;;;27.00;20.27;;;;;;;;;;5063391;28;20044;-61
2022/03/04 09:41:30;;;;;;;28.02;20.58;;;;;;;;;;5022393;28;20076;-63
2022/03/04 09:43:56;;;;;;;28.63;21.98;;;;;;;;;;5044069;28;20021;-61
2022/03/04 09:46:22;;;;;;;29.45;21.17;;;;;;;;;;5042362;28;20506;-61
2022/03/04 09:48:52;;;;;;;28.08;20.50;;;;;;;;;;5045176;28;20541;-61
2022/03/04 09:51:18;;;;;;;28.10;20.85;;;;;;;;;;5041908;28;20025;-62
2022/03/04 09:53:44;;;;;;;27.33;20.13;;;;;;;;;;5041918;28;20083;-60
2022/03/04 09:56:09;;;;;;;29.10;20.17;;;;;;;;;;5040615;28;20017;-61
2022/03/04 09:58:37;;;;;;;27.67;19.92;;;;;;;;;;5041358;28;20403;-63
2022/03/04 10:01:08;;;;;;;28.42;21.13;;;;;;;;;;5044383;28;20017;-63
2022/03/04 10:03:33;;;;;;;27.27;20.20;;;;;;;;;;5024739;28;20107;-62
2022/03/04 10:06:04;;;;;;;30.38;21.02;;;;;;;;;;5043257;28;20100;-61
2022/03/04 10:08:35;;;;;;;28.52;21.13;;;;;;;;;;5037864;28;20147;-61
2022/03/04 10:11:01;;;;;;;26.77;19.70;;;;;;;;;;5041460;28;20056;-62
2022/03/04 10:13:40;;;;;;;25.92;20.02;;;;;;;;;;5039876;28;20550;-62
2022/03/04 10:16:06;;;;;;;28.58;21.88;;;;;;;;;;5042392;28;20017;-63
2022/03/04 10:18:31;;;;;;;29.52;20.65;;;;;;;;;;5040332;28;20408;-61
2022/03/04 10:20:56;;;;;;;30.30;20.38;;;;;;;;;;5044218;28;20017;-62
2022/03/04 10:23:22;;;;;;;26.58;19.60;;;;;;;;;;5040282;28;20468;-62
2022/03/04 10:25:49;;;;;;;26.58;19.70;;;;;;;;;;5041795;28;20351;-60
2022/03/04 10:28:16;;;;;;;26.55;21.15;;;;;;;;;;5038501;28;20035;-61
2022/03/04 10:30:42;;;;;;;24.75;19.48;;;;;;;;;;5042678;28;20079;-62
2022/03/04 10:33:09;;;;;;;25.90;19.65;;;;;;;;;;5058308;28;20048;-62
2022/03/04 10:35:35;;;;;;;28.38;19.98;;;;;;;;;;5062089;28;20477;-62
2022/03/04 10:38:02;;;;;;;29.27;21.02;;;;;;;;;;5051483;28;20564;-62
2022/03/04 10:40:29;;;;;;;27.58;21.20;;;;;;;;;;5054430;28;20071;-60
2022/03/04 10:42:54;;;;;;;26.90;20.63;;;;;;;;;;5060521;28;20102;-61
2022/03/04 10:45:21;;;;;;;27.50;20.38;;;;;;;;;;5060003;28;20044;-60
2022/03/04 10:47:52;;;;;;;29.63;21.42;;;;;;;;;;5063095;28;20564;-62
2022/03/04 10:50:26;;;;;;;28.17;21.02;;;;;;;;;;5046187;28;20028;-62
2022/03/04 10:52:53;;;;;;;27.88;20.33;;;;;;;;;;5041700;28;20025;-60
2022/03/04 10:55:26;;;;;;;26.25;20.45;;;;;;;;;;5038181;28;20033;-62
2022/03/04 10:57:52;;;;;;;26.40;20.63;;;;;;;;;;5037628;28;20111;-62
2022/03/04 11:00:27;;;;;;;26.50;20.52;;;;;;;;;;5040669;28;20112;-61
2022/03/04 11:02:54;;;;;;;26.98;20.92;;;;;;;;;;5041910;28;20021;-62
2022/03/04 11:05:20;;;;;;;27.15;20.38;;;;;;;;;;5041949;28;20032;-62
2022/03/04 11:07:45;;;;;;;29.00;20.65;;;;;;;;;;5025568;28;20040;-63
2022/03/04 11:10:11;;;;;;;27.40;20.67;;;;;;;;;;5041088;28;20028;-61
2022/03/04 11:12:37;;;;;;;28.52;20.80;;;;;;;;;;5046065;28;20031;-62
2022/03/04 11:15:02;;;;;;;27.15;20.40;;;;;;;;;;5062304;28;20029;-63
2022/03/04 11:17:29;;;;;;;29.02;22.13;;;;;;;;;;5060720;28;20100;-61
2022/03/04 11:19:54;;;;;;;27.10;21.10;;;;;;;;;;5060955;28;20474;-62
2022/03/04 11:22:19;;;;;;;28.70;21.58;;;;;;;;;;5059867;28;20039;-62
2022/03/04 11:24:44;;;;;;;26.35;20.42;;;;;;;;;;5059475;28;20031;-62
2022/03/04 11:27:13;;;;;;;27.77;21.05;;;;;;;;;;5059554;28;20087;-61
2022/03/04 11:29:38;;;;;;;27.85;20.90;;;;;;;;;;5059641;28;20459;-63
2022/03/04 11:32:05;;;;;;;26.73;20.40;;;;;;;;;;5061821;28;20019;-62
2022/03/04 11:34:34;;;;;;;27.25;20.52;;;;;;;;;;5061367;28;20364;-62
2022/03/04 11:37:01;;;;;;;26.75;20.77;;;;;;;;;;5066708;28;20047;-62
2022/03/04 11:39:27;;;;;;;27.63;21.70;;;;;;;;;;5060732;28;20075;-62
2022/03/04 11:41:53;;;;;;;28.08;20.23;;;;;;;;;;5056597;28;20111;-62
2022/03/04 11:44:18;;;;;;;26.95;21.15;;;;;;;;;;5056571;28;20036;-61
2022/03/04 11:46:45;;;;;;;27.73;20.98;;;;;;;;;;5044140;28;20363;-62
2022/03/04 11:49:29;;;;;;;28.10;20.55;;;;;;;;;;5043525;28;20021;-62
2022/03/04 11:52:21;;;;;;;27.42;20.25;;;;;;;;;;5044553;28;20013;-62
2022/03/04 11:54:49;;;;;;;24.95;21.20;;;;;;;;;;5041999;28;20049;-62
2022/03/04 11:57:27;;;;;;;27.60;21.60;;;;;;;;;;5040433;28;20033;-62
2022/03/04 11:59:56;;;;;;;28.73;22.08;;;;;;;;;;5044724;28;20013;-61
2022/03/04 12:02:26;;;;;;;28.27;21.05;;;;;;;;;;5042908;28;20029;-62
2022/03/04 12:05:10;;;;;;;31.00;22.55;;;;;;;;;;5045957;28;20079;-62
2022/03/04 12:07:35;;;;;;;27.17;21.17;;;;;;;;;;5041905;28;20102;-62
2022/03/04 12:10:03;;;;;;;27.77;21.35;;;;;;;;;;5042067;28;20032;-62
2022/03/04 12:12:28;;;;;;;28.75;20.90;;;;;;;;;;5040591;28;20028;-61
2022/03/04 12:14:54;;;;;;;28.88;21.52;;;;;;;;;;5046069;28;20021;-61
2022/03/04 12:17:20;;;;;;;29.85;22.02;;;;;;;;;;5044050;28;20021;-62
2022/03/04 12:19:47;;;;;;;28.25;21.73;;;;;;;;;;5026716;28;20056;-62
2022/03/04 12:22:13;;;;;;;26.05;21.65;;;;;;;;;;5045675;28;20025;-62
2022/03/04 12:24:50;;;;;;;25.05;21.98;;;;;;;;;;5053322;28;20055;-62
2022/03/04 12:27:35;;;;;;;28.58;22.00;;;;;;;;;;5060783;28;20017;-61
2022/03/04 12:30:14;;;;;;;26.45;21.08;;;;;;;;;;5065501;28;20024;-62
2022/03/04 12:32:45;;;;;;;26.67;21.00;;;;;;;;;;5062959;28;20774;-62
2022/03/04 12:35:14;;;;;;;28.92;22.65;;;;;;;;;;5064390;28;20028;-61
2022/03/04 12:37:39;;;;;;;26.95;21.60;;;;;;;;;;5062306;28;20439;-62
2022/03/04 12:40:05;;;;;;;27.02;21.50;;;;;;;;;;5063822;28;20095;-62
2022/03/04 12:42:30;;;;;;;28.35;22.05;;;;;;;;;;5062788;28;20021;-63
2022/03/04 12:44:57;;;;;;;24.73;20.95;;;;;;;;;;5065022;28;20032;-62
2022/03/04 12:47:23;;;;;;;29.52;21.60;;;;;;;;;;5059699;28;20207;-63
2022/03/04 12:49:50;;;;;;;28.63;20.67;;;;;;;;;;5044331;28;20226;-61
2022/03/04 12:52:20;;;;;;;26.77;21.33;;;;;;;;;;5044515;28;20104;-62
2022/03/04 12:54:46;;;;;;;26.98;21.35;;;;;;;;;;5043186;28;20476;-62
2022/03/04 12:57:11;;;;;;;24.73;20.48;;;;;;;;;;5042516;28;20039;-61
2022/03/04 12:59:49;;;;;;;25.88;20.00;;;;;;;;;;5044975;28;20028;-62
2022/03/04 13:02:14;;;;;;;22.95;20.42;;;;;;;;;;5046327;28;20029;-62
2022/03/04 13:04:41;;;;;;;24.33;19.35;;;;;;;;;;5043019;28;20541;-62
2022/03/04 13:07:06;;;;;;;25.77;20.33;;;;;;;;;;5044268;28;20058;-62
2022/03/04 13:09:32;;;;;;;24.40;20.13;;;;;;;;;;5040144;28;20055;-63
2022/03/04 13:12:04;;;;;;;25.33;21.65;;;;;;;;;;5043681;28;20104;-62
2022/03/04 13:14:32;;;;;;;24.08;19.83;;;;;;;;;;5043370;28;20033;-62
2022/03/04 13:16:57;;;;;;;24.08;19.60;;;;;;;;;;5045978;28;20100;-62
2022/03/04 13:19:24;;;;;;;25.15;20.42;;;;;;;;;;5044472;28;20116;-62
2022/03/04 13:21:56;;;;;;;25.20;20.00;;;;;;;;;;5044104;28;20114;-62
2022/03/04 13:24:26;;;;;;;22.08;18.92;;;;;;;;;;5043515;28;20054;-62
2022/03/04 13:26:55;;;;;;;24.88;20.63;;;;;;;;;;5044173;28;20024;-62
2022/03/04 13:29:22;;;;;;;25.27;20.88;;;;;;;;;;5045151;28;20360;-62
2022/03/04 13:31:50;;;;;;;26.88;22.13;;;;;;;;;;5044334;28;20020;-62
2022/03/04 13:34:15;;;;;;;24.05;21.00;;;;;;;;;;5044648;28;20025;-62
2022/03/04 13:36:47;;;;;;;26.08;21.85;;;;;;;;;;5044954;28;20024;-62
2022/03/04 13:39:13;;;;;;;25.40;21.10;;;;;;;;;;5062105;28;20229;-62
2022/03/04 13:41:39;;;;;;;30.20;23.08;;;;;;;;;;5060888;28;20087;-62
2022/03/04 13:44:09;;;;;;;24.70;21.75;;;;;;;;;;5064448;28;20029;-62
2022/03/04 13:46:34;;;;;;;25.60;21.60;;;;;;;;;;5061372;28;20727;-61
2022/03/04 13:49:00;;;;;;;25.08;21.10;;;;;;;;;;5063628;28;20016;-62
2022/03/04 13:51:25;;;;;;;23.52;20.42;;;;;;;;;;5061952;28;20427;-62
2022/03/04 13:53:55;;;;;;;24.95;21.15;;;;;;;;;;5044819;28;20044;-63
2022/03/04 13:56:22;;;;;;;25.13;21.08;;;;;;;;;;5061612;28;20147;-61
2022/03/04 13:58:55;;;;;;;24.98;20.33;;;;;;;;;;5061826;28;20017;-62
2022/03/04 14:01:20;;;;;;;;;;;;;;;;;;5064176;28;20017;-62
2022/03/04 14:03:48;;;;;;;23.83;20.35;;;;;;;;;;5061897;28;20350;-63
2022/03/04 14:06:14;;;;;;;22.25;19.20;;;;;;;;;;5063786;28;20092;-62
2022/03/04 14:08:40;;;;;;;25.88;21.05;;;;;;;;;;5044411;28;20041;-63
2022/03/04 14:11:09;;;;;;;22.40;19.98;;;;;;;;;;5060883;28;20405;-61
2022/03/04 14:13:35;;;;;;;24.63;21.13;;;;;;;;;;5060602;28;20013;-61
2022/03/04 14:16:02;;;;;;;22.85;20.38;;;;;;;;;;5063530;28;20024;-62